Time;durP1;ratioP1;P1;durP2;ratioP2;P2;SDS_P1;SDS_P2;PMS_P1;PMS_P2;Temp;Humidity;BMP_temperature;BMP_pressure;BME280_temperature;BME280_humidity;BME280_pressure;Samples;Min_cycle;Max_cycle;Signal;HPM_P1;HPM_P2
2023/01/16 00:01:14;;;;;;;4.78;2.95;;;;;;;17.65;44.63;99503.31;5025922;28;20029;-53
2023/01/16 00:03:39;;;;;;;6.07;3.30;;;;;;;17.64;44.82;99490.06;5025635;28;20018;-53
2023/01/16 00:06:04;;;;;;;5.05;2.70;;;;;;;17.63;44.89;99483.03;5025644;28;20026;-56
2023/01/16 00:08:30;;;;;;;5.93;3.22;;;;;;;17.58;44.95;99470.16;5025448;28;20026;-55
2023/01/16 00:10:55;;;;;;;4.93;2.97;;;;;;;17.63;44.95;99473.13;5025763;28;20048;-51
2023/01/16 00:13:20;;;;;;;6.50;3.15;;;;;;;17.62;44.65;99466.06;5025369;28;20026;-51
2023/01/16 00:15:48;;;;;;;8.27;3.25;;;;;;;17.62;44.73;99471.44;5025246;28;20112;-53
2023/01/16 00:18:14;;;;;;;6.43;2.97;;;;;;;17.62;44.78;99460.69;5025136;28;20056;-53
2023/01/16 00:20:40;;;;;;;5.72;2.65;;;;;;;17.57;44.69;99459.63;5025515;28;20030;-50
2023/01/16 00:23:05;;;;;;;5.53;3.15;;;;;;;17.60;44.79;99464.59;5025296;28;20025;-53
2023/01/16 00:25:30;;;;;;;5.45;2.70;;;;;;;17.61;45.16;99458.19;5025460;28;20525;-52
2023/01/16 00:27:55;;;;;;;5.38;3.28;;;;;;;17.60;45.03;99449.31;5025246;28;20025;-53
2023/01/16 00:30:21;;;;;;;6.13;3.00;;;;;;;17.61;44.97;99452.81;5025034;28;20057;-51
2023/01/16 00:32:46;;;;;;;5.95;2.53;;;;;;;17.57;44.72;99436.25;5025253;28;20029;-48
2023/01/16 00:35:12;;;;;;;7.28;3.00;;;;;;;17.59;44.71;99444.13;5007865;28;20395;-54
2023/01/16 00:37:37;;;;;;;6.20;2.95;;;;;;;17.52;44.60;99430.63;5005339;28;20054;-55
2023/01/16 00:40:03;;;;;;;3.78;2.50;;;;;;;17.59;44.88;99430.69;5005447;28;20026;-56
2023/01/16 00:42:28;;;;;;;4.90;2.45;;;;;;;17.57;44.60;99422.00;5005414;28;20023;-56
2023/01/16 00:44:53;;;;;;;4.55;2.72;;;;;;;17.58;44.85;99420.94;5005447;28;20030;-50
2023/01/16 00:47:18;;;;;;;6.95;3.33;;;;;;;17.58;44.69;99410.22;5019595;28;20089;-55
2023/01/16 00:49:44;;;;;;;4.97;2.60;;;;;;;17.57;44.80;99406.69;5024436;28;20117;-52
2023/01/16 00:52:09;;;;;;;5.45;2.85;;;;;;;17.57;44.72;99406.69;5025061;28;20036;-55
2023/01/16 00:54:34;;;;;;;4.47;2.50;;;;;;;17.58;44.75;99399.47;5025057;28;20022;-55
2023/01/16 00:56:59;;;;;;;5.50;2.92;;;;;;;17.53;44.88;99389.28;5024659;28;20026;-55
2023/01/16 00:59:25;;;;;;;3.33;2.28;;;;;;;17.55;44.72;99391.81;5025143;28;20068;-53
2023/01/16 01:01:50;;;;;;;4.95;2.45;;;;;;;17.56;45.00;99393.47;5024523;28;20030;-55
2023/01/16 01:04:16;;;;;;;4.53;2.30;;;;;;;17.54;44.83;99385.56;5024733;28;20033;-54
2023/01/16 01:06:42;;;;;;;4.60;2.25;;;;;;;17.51;44.89;99383.31;5024848;28;20041;-55
2023/01/16 01:09:07;;;;;;;3.80;2.10;;;;;;;17.55;44.87;99383.75;5031236;28;20018;-56
2023/01/16 01:11:32;;;;;;;4.68;2.58;;;;;;;17.55;44.78;99383.75;5030971;28;20152;-52
2023/01/16 01:13:58;;;;;;;3.65;2.17;;;;;;;17.54;44.85;99380.19;5031288;28;20072;-54
2023/01/16 01:16:23;;;;;;;4.00;2.30;;;;;;;17.54;44.98;99374.00;5031081;28;20033;-55
2023/01/16 01:18:48;;;;;;;4.07;2.65;;;;;;;17.53;44.92;99373.19;5031267;28;20042;-51
2023/01/16 01:21:14;;;;;;;4.00;2.25;;;;;;;17.53;44.96;99365.13;5030949;28;20040;-51
2023/01/16 01:23:39;;;;;;;4.72;2.53;;;;;;;17.53;44.78;99364.28;5031237;28;20022;-51
2023/01/16 01:26:07;;;;;;;5.78;2.45;;;;;;;17.53;44.96;99361.59;5031158;28;20030;-55
2023/01/16 01:28:32;;;;;;;4.50;2.40;;;;;;;17.52;44.95;99346.50;5031194;28;20093;-51
2023/01/16 01:31:02;;;;;;;4.07;2.35;;;;;;;17.52;44.80;99354.56;5031176;28;20056;-55
2023/01/16 01:33:27;;;;;;;3.53;2.05;;;;;;;17.51;45.03;99350.22;5031273;28;20049;-53
2023/01/16 01:35:52;;;;;;;3.83;2.40;;;;;;;17.52;44.98;99349.19;5030935;28;20040;-54
2023/01/16 01:38:18;;;;;;;3.50;2.08;;;;;;;17.52;44.99;99351.88;5030924;28;20120;-54
2023/01/16 01:40:43;;;;;;;2.72;2.10;;;;;;;17.52;45.06;99352.72;5031076;28;20053;-50
2023/01/16 01:43:13;;;;;;;4.47;1.98;;;;;;;17.49;44.92;99340.50;5030679;28;20036;-55
2023/01/16 01:45:39;;;;;;;3.55;1.92;;;;;;;17.51;44.92;99331.44;5030454;28;20045;-50
2023/01/16 01:48:13;;;;;;;4.85;2.25;;;;;;;17.50;45.12;99330.59;5013465;28;20475;-51
2023/01/16 01:50:43;;;;;;;4.22;2.47;;;;;;;17.49;44.98;99327.06;5030938;28;20072;-51
2023/01/16 01:53:12;;;;;;;2.60;1.88;;;;;;;17.48;45.01;99325.41;5013272;28;20033;-54
2023/01/16 01:55:39;;;;;;;3.60;2.13;;;;;;;17.48;44.97;99322.72;5013148;28;20034;-50
2023/01/16 01:58:04;;;;;;;3.58;1.90;;;;;;;17.49;45.03;99323.53;5013467;28;20049;-51
2023/01/16 02:00:29;;;;;;;4.35;2.22;;;;;;;17.47;45.12;99323.75;5030699;28;20413;-56
2023/01/16 02:03:04;;;;;;;3.58;1.80;;;;;;;17.44;44.95;99318.75;5013675;28;20116;-52
2023/01/16 02:05:33;;;;;;;3.67;1.95;;;;;;;17.47;45.09;99317.53;5012907;28;20032;-52
2023/01/16 02:07:58;;;;;;;;;;;;;;;17.48;45.07;99308.44;5031517;28;20022;-52
2023/01/16 02:10:26;;;;;;;3.35;2.00;;;;;;;17.47;44.87;99304.94;5030605;28;19917;-52
2023/01/16 02:12:53;;;;;;;3.70;2.50;;;;;;;17.45;44.87;99301.59;5030737;28;20014;-53
2023/01/16 02:15:19;;;;;;;6.93;2.30;;;;;;;17.45;45.00;99298.09;5012863;28;20037;-51
2023/01/16 02:20:45;;;;;;;2.83;2.00;;;;;;;17.45;44.95;99287.34;4946859;29;20071;-55
2023/01/16 02:23:32;;;;;;;2.33;1.75;;;;;;;17.42;44.89;99277.03;4931884;29;20034;-51
2023/01/16 02:26:11;;;;;;;3.40;2.13;;;;;;;17.44;44.92;99275.78;4925365;29;20107;-55
2023/01/16 02:28:57;;;;;;;1.85;1.58;;;;;;;17.43;45.14;99271.44;4937545;29;20055;-55
2023/01/16 02:31:54;;;;;;;3.70;2.05;;;;;;;17.43;45.03;99270.59;4947383;29;20039;-54
2023/01/16 02:34:40;;;;;;;3.78;1.90;;;;;;;17.44;44.94;99269.56;4947297;29;20047;-55
2023/01/16 02:37:14;;;;;;;3.83;2.22;;;;;;;17.43;44.87;99276.81;4931568;29;20055;-55
2023/01/16 02:40:04;;;;;;;3.10;1.90;;;;;;;17.43;44.91;99274.13;4947264;29;20083;-52
2023/01/16 02:42:58;;;;;;;2.60;1.70;;;;;;;17.43;44.81;99262.56;4947233;29;20028;-54
2023/01/16 02:46:02;;;;;;;3.13;1.88;;;;;;;17.42;44.87;99256.34;4947170;29;20044;-54
2023/01/16 02:48:36;;;;;;;2.90;2.10;;;;;;;17.37;44.93;99247.22;4947089;29;20098;-55
2023/01/16 02:51:14;;;;;;;3.58;1.88;;;;;;;17.41;44.97;99249.28;4931497;29;20039;-54
2023/01/16 02:54:10;;;;;;;3.05;1.92;;;;;;;17.41;45.06;99241.22;4947376;29;20416;-53
2023/01/16 02:56:48;;;;;;;2.30;1.50;;;;;;;17.40;45.17;99231.53;4953110;28;20063;-54
2023/01/16 02:59:15;;;;;;;2.60;1.55;;;;;;;17.40;45.13;99228.84;5009217;28;20024;-54
2023/01/16 03:01:40;;;;;;;3.67;2.30;;;;;;;17.39;45.05;99235.25;5009375;28;20038;-55
2023/01/16 03:04:42;;;;;;;2.40;1.70;;;;;;;17.40;44.96;99226.16;5026907;28;20088;-54
2023/01/16 03:07:13;;;;;;;2.65;1.85;;;;;;;17.39;44.93;99221.00;5026809;28;20026;-56
2023/01/16 03:09:38;;;;;;;2.45;1.65;;;;;;;17.39;44.82;99221.81;5009417;28;20045;-54
2023/01/16 03:12:22;;;;;;;3.80;1.75;;;;;;;17.37;45.00;99210.44;5026905;28;20025;-54
2023/01/16 03:15:04;;;;;;;2.97;1.65;;;;;;;17.37;45.06;99214.97;5009413;28;20030;-53
2023/01/16 03:17:39;;;;;;;4.05;2.28;;;;;;;17.37;45.14;99199.69;5005685;28;20022;-54
2023/01/16 03:20:31;;;;;;;4.90;1.90;;;;;;;17.38;44.94;99204.03;4989434;28;20094;-54
2023/01/16 03:23:15;;;;;;;2.53;1.70;;;;;;;17.33;45.02;99200.28;4989727;28;20053;-54
2023/01/16 03:25:48;;;;;;;2.95;1.95;;;;;;;17.36;45.04;99200.72;4989197;28;20049;-52
2023/01/16 03:28:33;;;;;;;2.63;1.70;;;;;;;17.37;44.99;99193.47;4989298;28;20022;-56
2023/01/16 03:31:11;;;;;;;3.88;2.05;;;;;;;17.37;44.87;99191.63;4989460;28;20090;-56
2023/01/16 03:34:02;;;;;;;3.25;1.83;;;;;;;17.34;45.08;99192.03;5010783;28;20425;-56
2023/01/16 03:36:32;;;;;;;3.22;1.65;;;;;;;17.35;44.82;99188.31;5026114;28;20034;-54
2023/01/16 03:38:58;;;;;;;3.08;1.58;;;;;;;17.34;44.79;99181.28;5008503;28;20092;-56
2023/01/16 03:41:25;;;;;;;5.07;2.28;;;;;;;17.34;45.05;99180.47;4992253;28;20383;-56
2023/01/16 03:43:54;;;;;;;1.75;1.50;;;;;;;17.33;44.88;99170.72;5008454;28;20614;-56
2023/01/16 03:46:23;;;;;;;3.85;1.83;;;;;;;17.34;44.99;99164.34;5007991;28;20087;-56
2023/01/16 03:48:52;;;;;;;2.58;1.80;;;;;;;17.33;44.82;99151.94;5008484;28;20519;-57
2023/01/16 03:51:21;;;;;;;;;;;;;;;17.32;44.97;99145.72;5026062;28;20026;-50
2023/01/16 03:53:47;;;;;;;;;;;;;;;17.33;44.83;99141.19;5008609;28;20278;-53
2023/01/16 03:56:17;;;;;;;2.50;1.55;;;;;;;17.31;44.83;99124.47;5025618;28;19976;-52
2023/01/16 03:58:45;;;;;;;2.50;1.60;;;;;;;17.29;44.92;99123.81;5008405;28;20033;-53
2023/01/16 04:01:13;;;;;;;2.08;1.42;;;;;;;17.29;45.03;99121.97;5026122;28;20076;-53
2023/01/16 04:03:46;;;;;;;2.72;1.60;;;;;;;17.28;44.84;99114.09;5025027;28;20037;-55
2023/01/16 04:06:26;;;;;;;3.40;1.63;;;;;;;17.19;44.98;99098.16;5008010;28;20026;-55
2023/01/16 04:08:52;;;;;;;2.47;1.80;;;;;;;17.27;45.11;99099.03;5007879;28;20026;-54
2023/01/16 04:11:19;;;;;;;2.78;1.58;;;;;;;17.29;44.76;99094.25;5025391;28;20056;-55
2023/01/16 04:13:45;;;;;;;2.38;1.45;;;;;;;17.28;44.83;99084.56;5007862;28;20030;-53
2023/01/16 04:16:14;;;;;;;2.88;1.60;;;;;;;17.27;44.87;99083.72;5007372;28;20033;-52
2023/01/16 04:18:40;;;;;;;2.95;1.98;;;;;;;17.27;45.06;99075.69;5025734;28;20030;-54
2023/01/16 04:21:06;;;;;;;4.10;1.58;;;;;;;17.27;44.81;99075.69;5025420;28;20030;-53
2023/01/16 04:23:31;;;;;;;3.00;1.60;;;;;;;17.26;44.86;99068.66;5007591;28;20026;-55
2023/01/16 04:25:57;;;;;;;3.03;1.83;;;;;;;17.26;44.81;99063.28;5025437;28;20075;-51
2023/01/16 04:28:22;;;;;;;1.80;1.30;;;;;;;17.26;44.97;99054.41;5025172;28;20041;-56
2023/01/16 04:30:47;;;;;;;2.38;1.30;;;;;;;17.26;45.00;99049.84;5025280;28;20037;-54
2023/01/16 04:33:12;;;;;;;1.45;1.35;;;;;;;17.25;45.11;99042.84;5025001;28;20080;-51
2023/01/16 04:35:38;;;;;;;2.67;1.50;;;;;;;17.24;45.00;99028.56;5024619;28;20034;-55
2023/01/16 04:38:03;;;;;;;3.53;1.90;;;;;;;17.24;44.86;99025.88;5024630;28;20042;-55
2023/01/16 04:40:28;;;;;;;2.03;1.20;;;;;;;17.25;45.00;99021.34;5024865;28;20113;-55
2023/01/16 04:42:54;;;;;;;2.78;1.70;;;;;;;17.23;45.00;99013.47;5024763;28;20028;-55
2023/01/16 04:45:20;;;;;;;2.33;1.38;;;;;;;17.22;44.83;99009.16;5025199;28;20091;-52
2023/01/16 04:47:46;;;;;;;2.42;1.70;;;;;;;17.20;45.03;98996.94;5025211;28;20094;-53
2023/01/16 04:50:12;;;;;;;2.40;1.58;;;;;;;17.22;45.03;98995.72;5025248;28;20054;-54
2023/01/16 04:52:37;;;;;;;3.45;1.80;;;;;;;17.17;45.05;98982.09;5007285;28;20022;-54
2023/01/16 04:55:03;;;;;;;2.55;1.48;;;;;;;17.21;44.94;98983.31;5024815;28;20115;-54
2023/01/16 04:57:28;;;;;;;1.98;1.65;;;;;;;17.22;44.82;98976.09;5024720;28;20041;-55
2023/01/16 04:59:53;;;;;;;2.20;1.30;;;;;;;17.21;44.97;98963.69;5024790;28;20049;-53
2023/01/16 05:02:19;;;;;;;3.15;1.40;;;;;;;17.21;44.90;98961.84;5024879;28;20364;-55
2023/01/16 05:04:44;;;;;;;2.22;1.27;;;;;;;17.21;45.21;98955.66;5024554;28;20021;-52
2023/01/16 05:07:09;;;;;;;3.67;1.50;;;;;;;17.15;45.23;98934.97;5023615;28;20021;-54
2023/01/16 05:09:34;;;;;;;1.67;1.30;;;;;;;17.19;45.42;98930.84;5024252;28;20770;-53
2023/01/16 05:12:00;;;;;;;2.70;1.38;;;;;;;17.19;45.51;98934.34;5024000;28;20030;-53
2023/01/16 05:14:25;;;;;;;1.58;1.30;;;;;;;17.15;45.66;98925.06;5024123;28;20037;-54
2023/01/16 05:16:50;;;;;;;4.00;1.50;;;;;;;17.18;45.15;98921.97;5024120;28;20045;-48
2023/01/16 05:19:15;;;;;;;2.78;1.40;;;;;;;17.20;45.54;98911.00;5024169;28;20038;-50
2023/01/16 05:21:41;;;;;;;1.83;1.20;;;;;;;17.20;45.34;98898.44;5006488;28;20030;-51
2023/01/16 05:24:06;;;;;;;2.78;1.60;;;;;;;17.20;45.35;98902.94;5024652;28;20030;-54
2023/01/16 05:26:31;;;;;;;2.83;1.45;;;;;;;17.21;45.35;98885.81;5024109;28;20541;-51
2023/01/16 05:28:57;;;;;;;2.78;1.55;;;;;;;17.20;45.48;98885.00;5024124;28;20026;-54
2023/01/16 05:31:22;;;;;;;1.92;1.20;;;;;;;17.20;45.49;98882.31;5024497;28;20168;-54
2023/01/16 05:33:48;;;;;;;3.72;1.25;;;;;;;17.21;45.75;98880.44;5018463;28;20049;-52
2023/01/16 05:36:13;;;;;;;1.75;1.30;;;;;;;17.22;45.95;98874.03;4991922;28;20040;-52
2023/01/16 05:38:38;;;;;;;2.92;1.60;;;;;;;17.23;45.96;98864.94;5023964;28;20080;-56
2023/01/16 05:41:04;;;;;;;2.88;1.40;;;;;;;17.23;46.20;98857.72;5024239;28;20040;-52
2023/01/16 05:43:29;;;;;;;1.30;1.20;;;;;;;17.24;46.21;98845.09;5022856;28;20030;-52
2023/01/16 05:45:54;;;;;;;1.58;1.35;;;;;;;17.17;46.29;98826.31;5023826;28;20025;-54
2023/01/16 05:48:20;;;;;;;2.30;1.52;;;;;;;17.25;46.27;98830.66;5024057;28;20029;-55
2023/01/16 05:50:45;;;;;;;3.13;1.50;;;;;;;17.26;46.32;98831.50;5023942;28;20025;-53
2023/01/16 05:53:10;;;;;;;1.70;1.20;;;;;;;17.26;46.37;98824.25;5023979;28;20427;-53
2023/01/16 05:55:44;;;;;;;2.45;1.55;;;;;;;17.27;46.44;98825.91;5026108;28;20026;-54
2023/01/16 05:58:11;;;;;;;2.17;1.50;;;;;;;17.26;46.40;98821.56;5026697;28;20026;-50
2023/01/16 06:00:37;;;;;;;1.70;1.15;;;;;;;17.28;46.46;98810.59;5027651;28;20042;-54
2023/01/16 06:03:03;;;;;;;2.03;1.48;;;;;;;17.27;46.58;98796.34;5024782;28;20030;-53
2023/01/16 06:05:29;;;;;;;2.72;1.38;;;;;;;17.28;46.41;98800.69;5026708;28;20026;-52
2023/01/16 06:07:55;;;;;;;2.83;1.30;;;;;;;17.28;46.44;98787.25;5025348;28;20022;-53
2023/01/16 06:10:21;;;;;;;1.90;1.55;;;;;;;17.27;46.53;98771.38;5027405;28;20081;-56
2023/01/16 06:12:46;;;;;;;2.65;1.10;;;;;;;17.30;46.31;98770.94;5027052;28;20080;-54
2023/01/16 06:15:11;;;;;;;2.20;1.45;;;;;;;17.28;46.55;98757.72;5027192;28;20057;-55
2023/01/16 06:17:36;;;;;;;1.73;1.30;;;;;;;17.28;46.43;98746.97;5027163;28;20063;-54
2023/01/16 06:20:02;;;;;;;2.30;1.15;;;;;;;17.28;46.39;98740.78;5009104;28;20092;-54
2023/01/16 06:22:27;;;;;;;3.85;1.42;;;;;;;17.28;46.18;98741.59;5027103;28;20038;-56
2023/01/16 06:24:53;;;;;;;1.67;1.25;;;;;;;17.25;46.32;98720.56;5027315;28;20022;-54
2023/01/16 06:27:18;;;;;;;1.50;1.20;;;;;;;17.29;46.28;98729.84;5026896;28;20080;-53
2023/01/16 06:29:43;;;;;;;2.55;1.20;;;;;;;17.21;46.17;98697.84;5026741;28;20029;-55
2023/01/16 06:32:09;;;;;;;1.75;1.20;;;;;;;17.29;46.58;98704.81;5027026;28;20077;-54
2023/01/16 06:34:34;;;;;;;3.22;1.25;;;;;;;17.30;46.31;98699.25;5023884;28;20383;-55
2023/01/16 06:36:59;;;;;;;2.75;1.10;;;;;;;17.29;46.65;98686.88;5027007;28;20060;-54
2023/01/16 06:39:24;;;;;;;1.50;1.15;;;;;;;17.30;46.43;98683.13;5026666;28;20054;-56
2023/01/16 06:41:51;;;;;;;2.88;1.45;;;;;;;17.28;46.68;98669.09;5026628;28;20062;-54
2023/01/16 06:44:16;;;;;;;1.55;1.10;;;;;;;17.30;46.58;98661.66;5026703;28;20033;-53
2023/01/16 06:46:41;;;;;;;2.08;1.35;;;;;;;17.30;46.68;98652.78;5026408;28;20056;-55
2023/01/16 06:49:07;;;;;;;2.00;1.30;;;;;;;17.31;46.42;98654.41;5026435;28;20034;-54
2023/01/16 06:51:32;;;;;;;2.03;1.40;;;;;;;17.31;46.73;98649.03;5026449;28;20029;-56
2023/01/16 06:53:57;;;;;;;2.17;1.10;;;;;;;17.31;46.74;98641.00;5026650;28;20056;-56
2023/01/16 06:56:23;;;;;;;2.28;1.10;;;;;;;17.30;46.70;98637.47;5026150;28;20032;-57
2023/01/16 06:58:49;;;;;;;1.92;1.30;;;;;;;17.30;46.83;98632.13;5026473;28;20026;-56
2023/01/16 07:01:14;;;;;;;2.80;1.65;;;;;;;17.30;46.58;98616.00;5026107;28;20022;-56
2023/01/16 07:03:39;;;;;;;1.40;1.15;;;;;;;17.31;46.70;98625.69;5025682;28;20036;-56
2023/01/16 07:06:05;;;;;;;1.90;1.05;;;;;;;17.30;46.48;98613.31;5007610;28;20026;-55
2023/01/16 07:08:30;;;;;;;1.67;1.25;;;;;;;17.30;46.42;98617.88;5026277;28;20014;-56
2023/01/16 07:11:00;;;;;;;3.72;1.00;;;;;;;17.29;46.60;98614.34;5009001;28;20474;-56
2023/01/16 07:13:28;;;;;;;2.05;1.20;;;;;;;17.31;46.30;98614.94;5026019;28;20044;-54
2023/01/16 07:24:13;;;;;;;2.42;1.40;;;;;;;17.30;46.58;98601.75;5010091;28;20029;-56
2023/01/16 07:26:42;;;;;;;2.60;1.25;;;;;;;17.33;46.27;98593.25;5007872;28;20470;-56
2023/01/16 07:29:07;;;;;;;2.75;1.35;;;;;;;17.35;46.34;98586.63;5025771;28;20040;-53
2023/01/16 07:31:33;;;;;;;1.67;1.33;;;;;;;17.31;46.10;98579.22;5025965;28;20069;-55
2023/01/16 07:33:58;;;;;;;5.57;1.15;;;;;;;17.38;46.06;98588.06;5024070;28;20033;-54
2023/01/16 07:36:24;;;;;;;2.15;1.20;;;;;;;17.39;46.09;98579.78;5026032;28;20025;-54
2023/01/16 07:38:49;;;;;;;1.95;1.00;;;;;;;17.42;45.95;98574.00;5025183;28;20046;-55
2023/01/16 07:41:14;;;;;;;6.05;1.83;;;;;;;17.36;45.94;98563.28;5022522;28;20869;-57
2023/01/16 07:43:40;;;;;;;2.78;1.20;;;;;;;17.44;45.87;98565.72;5022521;28;20026;-57
2023/01/16 07:46:05;;;;;;;1.92;1.13;;;;;;;17.44;45.95;98566.53;5025820;28;20030;-53
2023/01/16 07:48:30;;;;;;;2.20;1.15;;;;;;;17.40;46.11;98549.19;5025720;28;20390;-53
2023/01/16 07:50:57;;;;;;;2.55;1.30;;;;;;;17.43;46.06;98539.91;5025395;28;20025;-55
2023/01/16 07:53:24;;;;;;;1.80;1.02;;;;;;;17.40;45.94;98522.34;5025806;28;20037;-54
2023/01/16 07:55:52;;;;;;;4.20;1.20;;;;;;;17.44;46.02;98525.41;5025472;28;20034;-55
2023/01/16 07:58:18;;;;;;;2.22;1.63;;;;;;;17.45;46.07;98525.19;5025449;28;20026;-53
2023/01/16 08:00:44;;;;;;;2.33;1.50;;;;;;;17.45;46.04;98517.13;5024133;28;20093;-52
2023/01/16 08:03:09;;;;;;;3.60;1.40;;;;;;;17.45;46.05;98506.38;5025518;28;20034;-50
2023/01/16 08:05:34;;;;;;;2.83;1.30;;;;;;;17.46;46.04;98497.31;5025330;28;20041;-55
2023/01/16 08:08:00;;;;;;;1.50;1.00;;;;;;;17.45;46.02;98486.75;5025792;28;20036;-54
2023/01/16 08:10:25;;;;;;;1.73;1.05;;;;;;;17.45;46.00;98490.25;5025545;28;20053;-51
2023/01/16 08:12:50;;;;;;;1.58;1.10;;;;;;;17.44;45.80;98477.06;5025426;28;20033;-52
2023/01/16 08:15:16;;;;;;;1.30;0.98;;;;;;;17.41;45.81;98459.50;5025361;28;20058;-52
2023/01/16 08:17:41;;;;;;;2.65;1.40;;;;;;;17.45;45.72;98458.03;5024495;28;20045;-55
2023/01/16 08:20:08;;;;;;;1.05;0.98;;;;;;;17.45;46.09;98444.59;5012426;28;20026;-51
2023/01/16 08:22:33;;;;;;;1.58;1.30;;;;;;;17.44;45.83;98440.28;4987494;28;20057;-52
2023/01/16 08:24:58;;;;;;;1.58;1.13;;;;;;;17.44;46.25;98428.72;5020719;28;20495;-53
2023/01/16 08:27:23;;;;;;;2.97;1.25;;;;;;;17.45;46.14;98416.91;5021597;28;20029;-53
2023/01/16 08:29:49;;;;;;;1.65;1.02;;;;;;;17.44;46.22;98415.28;5022053;28;20108;-51
2023/01/16 08:32:14;;;;;;;1.85;1.20;;;;;;;17.44;46.06;98410.72;5010417;28;20027;-50
2023/01/16 08:34:41;;;;;;;1.45;1.20;;;;;;;17.46;45.95;98402.47;5010201;28;20097;-50
2023/01/16 08:37:10;;;;;;;2.10;1.00;;;;;;;17.47;46.47;98401.41;5019670;28;20018;-54
2023/01/16 08:39:35;;;;;;;2.55;1.20;;;;;;;17.47;45.94;98391.50;5013519;28;20128;-55
2023/01/16 08:52:59;;;;;;;5.53;1.38;;;;;;;17.51;46.50;98362.31;4994145;28;20100;-52
2023/01/16 08:55:24;;;;;;;1.65;1.00;;;;;;;17.44;46.28;98348.94;5020610;28;20426;-48
2023/01/16 08:57:49;;;;;;;1.92;1.30;;;;;;;17.49;46.59;98356.34;5024353;28;20025;-47
2023/01/16 09:00:15;;;;;;;2.10;1.20;;;;;;;17.49;46.58;98348.28;5015445;28;20029;-50
2023/01/16 09:02:40;;;;;;;3.03;1.33;;;;;;;17.48;46.52;98347.47;5023843;28;20029;-48
2023/01/16 09:05:06;;;;;;;2.60;1.30;;;;;;;17.49;46.62;98341.03;5023262;28;20021;-50
2023/01/16 09:07:32;;;;;;;1.17;1.08;;;;;;;17.50;46.64;98323.09;5015822;28;20499;-55
2023/01/16 09:09:57;;;;;;;3.08;1.05;;;;;;;17.51;46.52;98318.53;5022902;28;20029;-55
2023/01/16 09:15:07;;;;;;;3.58;1.27;;;;;;;17.49;46.60;98310.66;5009733;28;20028;-48
2023/01/16 09:17:32;;;;;;;3.00;1.30;;;;;;;17.48;46.98;98292.91;5020263;28;20034;-48
2023/01/16 09:19:57;;;;;;;2.03;1.00;;;;;;;17.47;46.77;98285.91;5024560;28;20026;-49
2023/01/16 09:22:26;;;;;;;1.77;1.10;;;;;;;17.52;46.84;98277.19;5013962;28;20038;-48
2023/01/16 09:24:52;;;;;;;3.35;1.00;;;;;;;17.51;46.59;98264.81;5019173;28;20701;-46
2023/01/16 09:27:18;;;;;;;1.58;1.00;;;;;;;17.52;46.80;98267.25;5017550;28;20030;-47
2023/01/16 09:29:43;;;;;;;3.30;1.23;;;;;;;17.54;46.34;98269.72;5016691;28;20030;-52
2023/01/16 09:32:09;;;;;;;3.42;1.20;;;;;;;17.52;46.24;98253.00;5027426;28;20069;-50
2023/01/16 09:34:35;;;;;;;5.82;1.55;;;;;;;17.52;46.16;98248.44;5022754;28;20034;-51
2023/01/16 09:37:01;;;;;;;3.10;1.00;;;;;;;17.51;46.47;98249.50;5012387;28;20017;-54
2023/01/16 09:39:26;;;;;;;3.17;1.00;;;;;;;17.49;46.28;98236.28;5027948;28;20054;-51
2023/01/16 09:44:51;;;;;;;2.85;0.95;;;;;;;17.49;46.27;98224.72;5027311;28;20153;-51
2023/01/16 09:47:20;;;;;;;2.50;1.08;;;;;;;17.50;46.51;98221.00;5023749;28;20025;-53
2023/01/16 09:49:56;;;;;;;2.45;1.20;;;;;;;17.42;46.43;98208.69;5016622;28;20045;-47
2023/01/16 09:58:35;;;;;;;1.92;1.00;;;;;;;17.48;46.34;98197.03;5027812;28;20106;-48
2023/01/16 10:01:00;;;;;;;3.13;0.93;;;;;;;17.51;46.25;98192.28;5014835;28;20030;-51
2023/01/16 10:03:26;;;;;;;2.45;1.40;;;;;;;17.49;47.08;98187.91;5003431;28;20026;-55
2023/01/16 10:06:02;;;;;;;1.85;1.00;;;;;;;17.53;46.38;98180.22;5024106;28;20030;-58
2023/01/16 10:08:48;;;;;;;3.22;0.98;;;;;;;17.54;46.34;98179.19;5002212;28;20050;-55
2023/01/16 10:11:19;;;;;;;1.73;1.02;;;;;;;17.55;46.39;98172.78;5017003;28;20057;-54
2023/01/16 10:13:59;;;;;;;2.85;1.17;;;;;;;17.57;46.37;98172.53;5018042;28;20033;-52
2023/01/16 10:16:49;;;;;;;2.17;1.10;;;;;;;17.57;46.17;98167.19;5011647;28;20058;-50
2023/01/16 10:19:18;;;;;;;2.28;1.15;;;;;;;17.56;46.20;98152.13;4998784;28;20032;-53
2023/01/16 10:22:07;;;;;;;1.30;1.00;;;;;;;17.56;46.00;98149.41;5013909;28;20045;-52
2023/01/16 10:24:50;;;;;;;2.72;1.10;;;;;;;17.57;46.29;98137.63;4995042;28;20109;-55
2023/01/16 10:27:28;;;;;;;3.88;0.82;;;;;;;17.59;46.18;98136.38;5006900;28;20025;-57
2023/01/16 10:29:57;;;;;;;1.20;0.88;;;;;;;17.62;45.97;98137.75;5026405;28;20024;-56
2023/01/16 10:32:29;;;;;;;1.83;0.95;;;;;;;17.62;46.17;98135.06;5006073;28;20018;-55
2023/01/16 10:35:03;;;;;;;1.25;0.88;;;;;;;17.64;45.97;98135.69;5012261;28;20026;-56
2023/01/16 10:37:29;;;;;;;2.25;0.90;;;;;;;17.58;46.10;98113.22;5007405;28;20022;-54
2023/01/16 10:39:55;;;;;;;1.38;0.82;;;;;;;17.65;46.00;98126.56;5007206;28;20040;-56
2023/01/16 10:50:38;;;;;;;1.33;0.90;;;;;;;17.67;45.79;98095.75;5009752;28;20080;-54
2023/01/16 10:53:08;;;;;;;0.95;0.75;;;;;;;17.66;45.99;98086.03;5008869;28;20026;-56
2023/01/16 10:55:37;;;;;;;1.40;0.90;;;;;;;17.68;46.05;98083.13;5024312;28;20038;-54
2023/01/16 10:58:23;;;;;;;1.73;1.15;;;;;;;17.67;45.91;98079.63;5026446;28;20759;-52
2023/01/16 11:00:50;;;;;;;2.35;0.90;;;;;;;17.66;46.15;98067.22;5008039;28;20041;-55
2023/01/16 11:03:39;;;;;;;2.58;1.20;;;;;;;17.65;46.01;98059.38;5026143;28;20455;-51
2023/01/16 11:06:18;;;;;;;2.53;0.90;;;;;;;17.66;46.12;98047.59;5026324;28;20022;-52
2023/01/16 11:08:47;;;;;;;2.08;1.10;;;;;;;17.67;45.89;98049.22;5025179;28;20104;-52
2023/01/16 11:19:30;;;;;;;0.88;0.80;;;;;;;17.64;46.13;98025.53;5024640;28;20032;-53
2023/01/16 11:22:07;;;;;;;1.02;0.95;;;;;;;17.64;45.94;98033.56;5025933;28;20080;-52
2023/01/16 11:24:35;;;;;;;2.08;1.05;;;;;;;17.55;45.97;98003.53;5024528;28;20022;-55
2023/01/16 11:27:05;;;;;;;1.07;0.90;;;;;;;17.61;46.09;98009.84;5026358;28;20028;-53
2023/01/16 11:29:37;;;;;;;1.63;0.90;;;;;;;17.62;45.88;98017.66;5025503;28;20025;-52
2023/01/16 11:32:12;;;;;;;1.27;0.80;;;;;;;17.61;45.91;98007.16;5008163;28;20074;-48
2023/01/16 11:34:43;;;;;;;1.63;0.90;;;;;;;17.60;45.92;97998.28;4995445;28;20037;-55
2023/01/16 11:37:12;;;;;;;2.13;0.95;;;;;;;17.59;46.14;97999.34;5006084;28;20023;-52
2023/01/16 11:39:37;;;;;;;;;;;;;;;17.59;46.11;97995.84;4989302;28;20042;-53
2023/01/16 11:47:41;;;;;;;1.27;0.90;;;;;;;17.51;45.98;97980.88;4991472;28;20522;-52
2023/01/16 11:50:21;;;;;;;1.60;1.10;;;;;;;17.52;46.11;97971.75;5012700;28;20034;-52
2023/01/16 11:52:47;;;;;;;1.27;1.00;;;;;;;17.51;45.91;97967.44;5007411;28;20017;-53
2023/01/16 11:55:14;;;;;;;1.67;0.93;;;;;;;17.43;45.89;97949.78;5024961;28;20092;-50
2023/01/16 11:58:03;;;;;;;1.90;1.00;;;;;;;17.49;46.22;97950.72;5024706;28;20084;-53
2023/01/16 12:00:55;;;;;;;1.52;0.80;;;;;;;17.54;45.96;97941.97;5008194;28;20022;-53
2023/01/16 12:03:45;;;;;;;1.98;1.10;;;;;;;17.55;45.76;97936.38;5008004;28;20033;-49
2023/01/16 12:06:35;;;;;;;1.05;0.90;;;;;;;17.55;45.83;97922.13;4989305;28;20034;-54
2023/01/16 12:09:25;;;;;;;2.80;1.00;;;;;;;17.56;45.54;97921.91;5005830;28;20022;-53
2023/01/16 12:15:04;;;;;;;1.35;0.90;;;;;;;17.62;45.39;97909.38;5006178;28;20070;-49
2023/01/16 12:17:46;;;;;;;2.00;0.70;;;;;;;17.64;45.42;97896.56;5004244;28;20494;-52
2023/01/16 12:20:20;;;;;;;2.13;0.88;;;;;;;17.66;45.48;97895.25;5006129;28;20026;-48
2023/01/16 12:22:54;;;;;;;2.03;0.90;;;;;;;17.68;45.38;97879.72;5004378;28;20037;-49
2023/01/16 12:25:25;;;;;;;2.00;0.90;;;;;;;17.69;45.37;97881.34;5005806;28;20030;-51
2023/01/16 12:28:08;;;;;;;1.10;1.00;;;;;;;17.72;45.23;97869.34;4987849;28;20033;-48
2023/01/16 12:31:10;;;;;;;1.75;0.95;;;;;;;17.72;45.49;97869.34;4988388;28;20770;-52
2023/01/16 12:33:46;;;;;;;1.02;0.90;;;;;;;17.73;45.42;97868.28;5009548;28;20046;-51
2023/01/16 12:36:27;;;;;;;1.00;0.90;;;;;;;17.76;45.40;97864.34;5007544;28;20057;-49
2023/01/16 12:39:08;;;;;;;1.00;0.90;;;;;;;17.75;45.23;97858.13;5007412;28;20041;-49
2023/01/16 12:44:29;;;;;;;0.93;0.70;;;;;;;17.77;45.23;97839.91;5024638;28;20105;-48
2023/01/16 12:47:00;;;;;;;1.27;0.80;;;;;;;17.78;45.14;97835.34;5024899;28;20026;-50